sensor_id;sensor_type;location;lat;lon;timestamp;temperature;humidity
56268;DHT22;42175;46.930;9.532;2023-03-31T00:01:39;23.10;44.90
56268;DHT22;42175;46.930;9.532;2023-03-31T00:04:09;23.10;44.90
56268;DHT22;42175;46.930;9.532;2023-03-31T00:06:39;23.10;44.90
56268;DHT22;42175;46.930;9.532;2023-03-31T00:09:12;23.10;44.90
56268;DHT22;42175;46.930;9.532;2023-03-31T00:11:39;23.10;44.90
56268;DHT22;42175;46.930;9.532;2023-03-31T00:14:06;23.10;44.90
56268;DHT22;42175;46.930;9.532;2023-03-31T00:16:37;23.10;44.80
56268;DHT22;42175;46.930;9.532;2023-03-31T00:19:04;23.10;44.80
56268;DHT22;42175;46.930;9.532;2023-03-31T00:21:30;23.10;44.80
56268;DHT22;42175;46.930;9.532;2023-03-31T00:24:00;23.10;44.80
56268;DHT22;42175;46.930;9.532;2023-03-31T00:26:26;23.10;44.80
56268;DHT22;42175;46.930;9.532;2023-03-31T00:28:53;23.10;44.80
56268;DHT22;42175;46.930;9.532;2023-03-31T00:31:20;23.10;44.80
56268;DHT22;42175;46.930;9.532;2023-03-31T00:33:46;23.10;44.70
56268;DHT22;42175;46.930;9.532;2023-03-31T00:36:13;23.10;44.80
56268;DHT22;42175;46.930;9.532;2023-03-31T00:38:46;23.10;44.70
56268;DHT22;42175;46.930;9.532;2023-03-31T00:41:13;23.10;44.80
56268;DHT22;42175;46.930;9.532;2023-03-31T00:43:40;23.10;44.80
56268;DHT22;42175;46.930;9.532;2023-03-31T00:46:14;23.10;44.70
56268;DHT22;42175;46.930;9.532;2023-03-31T00:48:47;23.10;44.70
56268;DHT22;42175;46.930;9.532;2023-03-31T00:51:15;23.10;44.70
56268;DHT22;42175;46.930;9.532;2023-03-31T00:53:41;23.10;44.70
56268;DHT22;42175;46.930;9.532;2023-03-31T00:56:12;23.10;44.80
56268;DHT22;42175;46.930;9.532;2023-03-31T00:58:40;23.10;44.80
56268;DHT22;42175;46.930;9.532;2023-03-31T01:01:15;23.10;44.80
56268;DHT22;42175;46.930;9.532;2023-03-31T01:03:44;23.10;44.80
56268;DHT22;42175;46.930;9.532;2023-03-31T01:06:12;23.10;44.70
56268;DHT22;42175;46.930;9.532;2023-03-31T01:08:40;23.10;44.80
56268;DHT22;42175;46.930;9.532;2023-03-31T01:11:09;23.10;44.70
56268;DHT22;42175;46.930;9.532;2023-03-31T01:13:38;23.10;44.70
56268;DHT22;42175;46.930;9.532;2023-03-31T01:16:05;23.10;44.70
56268;DHT22;42175;46.930;9.532;2023-03-31T01:18:31;23.10;44.70
56268;DHT22;42175;46.930;9.532;2023-03-31T01:41:19;23.00;44.60
56268;DHT22;42175;46.930;9.532;2023-03-31T01:49:06;23.10;44.70
56268;DHT22;42175;46.930;9.532;2023-03-31T01:57:04;23.00;44.60
56268;DHT22;42175;46.930;9.532;2023-03-31T02:02:25;23.00;44.50
56268;DHT22;42175;46.930;9.532;2023-03-31T02:04:58;23.00;44.50
56268;DHT22;42175;46.930;9.532;2023-03-31T02:07:39;23.00;44.60
56268;DHT22;42175;46.930;9.532;2023-03-31T02:10:08;23.00;44.60
56268;DHT22;42175;46.930;9.532;2023-03-31T02:12:38;23.00;44.60
56268;DHT22;42175;46.930;9.532;2023-03-31T02:15:08;23.00;44.50
56268;DHT22;42175;46.930;9.532;2023-03-31T02:17:34;23.00;44.50
56268;DHT22;42175;46.930;9.532;2023-03-31T02:20:08;23.00;44.50
56268;DHT22;42175;46.930;9.532;2023-03-31T02:22:38;23.00;44.50
56268;DHT22;42175;46.930;9.532;2023-03-31T02:25:08;23.00;44.50
56268;DHT22;42175;46.930;9.532;2023-03-31T02:27:40;23.00;44.50
56268;DHT22;42175;46.930;9.532;2023-03-31T02:30:08;23.00;44.60
56268;DHT22;42175;46.930;9.532;2023-03-31T02:32:40;23.00;44.50
56268;DHT22;42175;46.930;9.532;2023-03-31T02:35:16;23.00;44.50
56268;DHT22;42175;46.930;9.532;2023-03-31T02:37:43;23.00;44.50
56268;DHT22;42175;46.930;9.532;2023-03-31T02:40:14;23.00;44.50
56268;DHT22;42175;46.930;9.532;2023-03-31T02:42:41;23.00;44.50
56268;DHT22;42175;46.930;9.532;2023-03-31T02:47:59;23.00;44.50
56268;DHT22;42175;46.930;9.532;2023-03-31T02:50:26;23.00;44.50
56268;DHT22;42175;46.930;9.532;2023-03-31T02:55:51;23.00;44.40
56268;DHT22;42175;46.930;9.532;2023-03-31T03:15:27;23.00;44.50
56268;DHT22;42175;46.930;9.532;2023-03-31T03:17:55;23.00;44.50
56268;DHT22;42175;46.930;9.532;2023-03-31T03:20:22;23.00;44.50
56268;DHT22;42175;46.930;9.532;2023-03-31T03:22:47;23.00;44.50
56268;DHT22;42175;46.930;9.532;2023-03-31T03:25:14;23.00;44.50
56268;DHT22;42175;46.930;9.532;2023-03-31T03:27:45;22.90;44.50
56268;DHT22;42175;46.930;9.532;2023-03-31T03:30:13;23.00;44.40
56268;DHT22;42175;46.930;9.532;2023-03-31T03:32:39;23.00;44.40
56268;DHT22;42175;46.930;9.532;2023-03-31T03:35:06;23.00;44.40
56268;DHT22;42175;46.930;9.532;2023-03-31T03:37:32;23.00;44.50
56268;DHT22;42175;46.930;9.532;2023-03-31T03:39:58;23.00;44.50
56268;DHT22;42175;46.930;9.532;2023-03-31T03:42:24;23.00;44.40
56268;DHT22;42175;46.930;9.532;2023-03-31T03:44:49;22.90;44.40
56268;DHT22;42175;46.930;9.532;2023-03-31T03:47:15;22.90;44.40
56268;DHT22;42175;46.930;9.532;2023-03-31T03:49:41;23.00;44.40
56268;DHT22;42175;46.930;9.532;2023-03-31T03:52:07;23.00;44.30
56268;DHT22;42175;46.930;9.532;2023-03-31T03:54:33;23.00;44.30
56268;DHT22;42175;46.930;9.532;2023-03-31T03:56:59;23.00;44.40
56268;DHT22;42175;46.930;9.532;2023-03-31T03:59:25;23.00;44.40
56268;DHT22;42175;46.930;9.532;2023-03-31T04:01:50;22.90;44.30
56268;DHT22;42175;46.930;9.532;2023-03-31T04:04:17;23.00;44.30
56268;DHT22;42175;46.930;9.532;2023-03-31T04:06:43;23.00;44.30
56268;DHT22;42175;46.930;9.532;2023-03-31T04:09:08;23.00;44.30
56268;DHT22;42175;46.930;9.532;2023-03-31T04:11:35;23.00;44.30
56268;DHT22;42175;46.930;9.532;2023-03-31T04:14:00;23.00;44.30
56268;DHT22;42175;46.930;9.532;2023-03-31T04:16:26;22.90;44.20
56268;DHT22;42175;46.930;9.532;2023-03-31T04:18:52;23.00;44.20
56268;DHT22;42175;46.930;9.532;2023-03-31T04:21:21;22.90;44.30
56268;DHT22;42175;46.930;9.532;2023-03-31T04:23:49;23.00;44.20
56268;DHT22;42175;46.930;9.532;2023-03-31T04:26:24;22.90;44.20
56268;DHT22;42175;46.930;9.532;2023-03-31T04:28:56;23.00;44.20
56268;DHT22;42175;46.930;9.532;2023-03-31T04:31:25;22.90;44.10
56268;DHT22;42175;46.930;9.532;2023-03-31T04:33:54;22.90;43.80
56268;DHT22;42175;46.930;9.532;2023-03-31T04:36:20;22.90;43.40
56268;DHT22;42175;46.930;9.532;2023-03-31T04:38:50;22.90;43.90
56268;DHT22;42175;46.930;9.532;2023-03-31T04:41:20;22.90;44.20
56268;DHT22;42175;46.930;9.532;2023-03-31T04:43:46;22.90;44.80
56268;DHT22;42175;46.930;9.532;2023-03-31T04:46:12;23.00;44.10
56268;DHT22;42175;46.930;9.532;2023-03-31T04:48:38;22.90;44.20
56268;DHT22;42175;46.930;9.532;2023-03-31T04:51:04;22.90;44.00
56268;DHT22;42175;46.930;9.532;2023-03-31T04:53:30;22.90;44.20
56268;DHT22;42175;46.930;9.532;2023-03-31T04:55:56;22.90;44.10
56268;DHT22;42175;46.930;9.532;2023-03-31T04:58:22;22.90;44.10
56268;DHT22;42175;46.930;9.532;2023-03-31T05:00:48;22.90;44.00
56268;DHT22;42175;46.930;9.532;2023-03-31T05:03:14;22.90;44.00
56268;DHT22;42175;46.930;9.532;2023-03-31T05:05:39;23.00;44.00
56268;DHT22;42175;46.930;9.532;2023-03-31T05:08:05;22.90;44.60
56268;DHT22;42175;46.930;9.532;2023-03-31T05:10:31;22.90;44.00
56268;DHT22;42175;46.930;9.532;2023-03-31T05:12:57;22.90;44.00
56268;DHT22;42175;46.930;9.532;2023-03-31T05:15:23;22.90;44.00
56268;DHT22;42175;46.930;9.532;2023-03-31T05:17:49;22.90;44.00
56268;DHT22;42175;46.930;9.532;2023-03-31T05:20:15;22.90;44.00
56268;DHT22;42175;46.930;9.532;2023-03-31T05:22:41;22.90;44.10
56268;DHT22;42175;46.930;9.532;2023-03-31T05:25:08;22.90;44.00
56268;DHT22;42175;46.930;9.532;2023-03-31T05:27:34;22.90;44.00
56268;DHT22;42175;46.930;9.532;2023-03-31T05:30:01;22.90;44.00
56268;DHT22;42175;46.930;9.532;2023-03-31T05:32:27;22.90;44.00
56268;DHT22;42175;46.930;9.532;2023-03-31T05:34:53;22.90;44.00
56268;DHT22;42175;46.930;9.532;2023-03-31T05:37:25;22.90;44.00
56268;DHT22;42175;46.930;9.532;2023-03-31T05:39:52;22.90;44.00
56268;DHT22;42175;46.930;9.532;2023-03-31T05:42:18;22.90;43.80
56268;DHT22;42175;46.930;9.532;2023-03-31T05:44:45;22.90;43.90
56268;DHT22;42175;46.930;9.532;2023-03-31T05:47:11;23.00;44.10
56268;DHT22;42175;46.930;9.532;2023-03-31T05:49:36;23.00;44.00
56268;DHT22;42175;46.930;9.532;2023-03-31T05:52:04;23.00;43.90
56268;DHT22;42175;46.930;9.532;2023-03-31T05:54:31;23.00;44.70
56268;DHT22;42175;46.930;9.532;2023-03-31T05:56:56;22.90;45.80
56268;DHT22;42175;46.930;9.532;2023-03-31T05:59:22;23.00;44.90
56268;DHT22;42175;46.930;9.532;2023-03-31T06:01:48;22.90;45.10
56268;DHT22;42175;46.930;9.532;2023-03-31T06:04:13;22.90;45.00
56268;DHT22;42175;46.930;9.532;2023-03-31T06:06:39;22.90;45.60
56268;DHT22;42175;46.930;9.532;2023-03-31T06:09:05;23.00;45.60
56268;DHT22;42175;46.930;9.532;2023-03-31T06:11:31;23.00;45.40
56268;DHT22;42175;46.930;9.532;2023-03-31T06:13:56;23.00;45.60
56268;DHT22;42175;46.930;9.532;2023-03-31T06:16:22;23.00;45.40
56268;DHT22;42175;46.930;9.532;2023-03-31T06:18:48;23.00;45.30
56268;DHT22;42175;46.930;9.532;2023-03-31T06:21:17;23.00;44.90
56268;DHT22;42175;46.930;9.532;2023-03-31T06:23:44;22.90;44.60
56268;DHT22;42175;46.930;9.532;2023-03-31T06:26:17;22.90;44.40
56268;DHT22;42175;46.930;9.532;2023-03-31T06:28:44;22.90;44.40
56268;DHT22;42175;46.930;9.532;2023-03-31T06:31:12;22.90;44.30
56268;DHT22;42175;46.930;9.532;2023-03-31T06:33:39;22.90;44.30
56268;DHT22;42175;46.930;9.532;2023-03-31T06:36:07;22.90;44.20
56268;DHT22;42175;46.930;9.532;2023-03-31T06:38:33;22.90;44.20
56268;DHT22;42175;46.930;9.532;2023-03-31T06:40:59;22.90;44.20
56268;DHT22;42175;46.930;9.532;2023-03-31T06:43:25;22.90;44.10
56268;DHT22;42175;46.930;9.532;2023-03-31T06:45:55;22.90;44.20
56268;DHT22;42175;46.930;9.532;2023-03-31T06:48:24;22.90;44.20
56268;DHT22;42175;46.930;9.532;2023-03-31T06:50:52;22.90;44.30
56268;DHT22;42175;46.930;9.532;2023-03-31T06:53:18;22.90;44.20
56268;DHT22;42175;46.930;9.532;2023-03-31T06:55:44;22.90;44.10
56268;DHT22;42175;46.930;9.532;2023-03-31T06:58:10;22.90;44.10
56268;DHT22;42175;46.930;9.532;2023-03-31T07:00:37;22.90;44.10
56268;DHT22;42175;46.930;9.532;2023-03-31T07:03:03;22.90;44.10
56268;DHT22;42175;46.930;9.532;2023-03-31T07:05:30;22.90;44.10
56268;DHT22;42175;46.930;9.532;2023-03-31T07:07:57;22.90;44.10
56268;DHT22;42175;46.930;9.532;2023-03-31T07:10:25;22.90;44.00
56268;DHT22;42175;46.930;9.532;2023-03-31T07:12:51;22.90;44.40
56268;DHT22;42175;46.930;9.532;2023-03-31T07:15:19;22.90;44.20
56268;DHT22;42175;46.930;9.532;2023-03-31T07:17:44;22.90;44.10
56268;DHT22;42175;46.930;9.532;2023-03-31T07:20:12;23.00;44.10
56268;DHT22;42175;46.930;9.532;2023-03-31T07:22:42;22.90;44.20
56268;DHT22;42175;46.930;9.532;2023-03-31T07:25:10;22.90;44.10
56268;DHT22;42175;46.930;9.532;2023-03-31T07:27:36;22.90;44.00
56268;DHT22;42175;46.930;9.532;2023-03-31T07:30:28;22.90;43.90
56268;DHT22;42175;46.930;9.532;2023-03-31T07:32:54;22.90;44.00
56268;DHT22;42175;46.930;9.532;2023-03-31T07:35:20;22.90;44.10
56268;DHT22;42175;46.930;9.532;2023-03-31T07:37:48;22.90;44.20
56268;DHT22;42175;46.930;9.532;2023-03-31T07:40:17;22.90;44.40
56268;DHT22;42175;46.930;9.532;2023-03-31T07:42:43;23.00;44.60
56268;DHT22;42175;46.930;9.532;2023-03-31T07:45:11;23.00;44.60
56268;DHT22;42175;46.930;9.532;2023-03-31T07:47:37;22.90;44.50
56268;DHT22;42175;46.930;9.532;2023-03-31T07:50:05;23.00;44.50
56268;DHT22;42175;46.930;9.532;2023-03-31T07:52:31;22.90;44.70
56268;DHT22;42175;46.930;9.532;2023-03-31T07:54:56;22.90;44.90
56268;DHT22;42175;46.930;9.532;2023-03-31T07:57:22;22.90;45.00
56268;DHT22;42175;46.930;9.532;2023-03-31T07:59:48;23.00;45.10
56268;DHT22;42175;46.930;9.532;2023-03-31T08:02:15;23.00;45.20
56268;DHT22;42175;46.930;9.532;2023-03-31T08:04:42;23.00;45.30
56268;DHT22;42175;46.930;9.532;2023-03-31T08:07:10;23.00;45.60
56268;DHT22;42175;46.930;9.532;2023-03-31T08:09:37;23.00;45.50
56268;DHT22;42175;46.930;9.532;2023-03-31T08:12:03;23.00;45.50
56268;DHT22;42175;46.930;9.532;2023-03-31T08:14:29;23.00;45.00
56268;DHT22;42175;46.930;9.532;2023-03-31T08:16:55;23.00;45.30
56268;DHT22;42175;46.930;9.532;2023-03-31T08:19:22;23.00;45.50
56268;DHT22;42175;46.930;9.532;2023-03-31T08:21:48;23.00;45.50
56268;DHT22;42175;46.930;9.532;2023-03-31T08:24:14;23.00;42.20
56268;DHT22;42175;46.930;9.532;2023-03-31T08:26:40;22.50;41.10
56268;DHT22;42175;46.930;9.532;2023-03-31T08:29:06;22.40;41.10
56268;DHT22;42175;46.930;9.532;2023-03-31T08:31:32;22.40;40.60
56268;DHT22;42175;46.930;9.532;2023-03-31T08:33:58;22.20;40.50
56268;DHT22;42175;46.930;9.532;2023-03-31T08:36:24;21.90;40.60
56268;DHT22;42175;46.930;9.532;2023-03-31T08:38:51;22.10;41.50
56268;DHT22;42175;46.930;9.532;2023-03-31T08:43:59;22.40;42.10
56268;DHT22;42175;46.930;9.532;2023-03-31T08:46:28;22.40;42.50
56268;DHT22;42175;46.930;9.532;2023-03-31T08:48:56;22.50;42.90
56268;DHT22;42175;46.930;9.532;2023-03-31T08:51:46;22.50;43.10
56268;DHT22;42175;46.930;9.532;2023-03-31T08:54:32;22.50;43.90
56268;DHT22;42175;46.930;9.532;2023-03-31T08:56:58;22.60;43.30
56268;DHT22;42175;46.930;9.532;2023-03-31T08:59:34;22.70;43.50
56268;DHT22;42175;46.930;9.532;2023-03-31T09:12:10;22.70;43.50
56268;DHT22;42175;46.930;9.532;2023-03-31T09:14:53;22.70;43.60
56268;DHT22;42175;46.930;9.532;2023-03-31T09:17:36;22.70;43.70
56268;DHT22;42175;46.930;9.532;2023-03-31T09:20:14;22.80;43.90
56268;DHT22;42175;46.930;9.532;2023-03-31T09:22:46;22.80;44.00
56268;DHT22;42175;46.930;9.532;2023-03-31T09:25:25;22.70;43.80
56268;DHT22;42175;46.930;9.532;2023-03-31T09:27:56;22.80;43.90
56268;DHT22;42175;46.930;9.532;2023-03-31T09:30:29;22.80;43.80
56268;DHT22;42175;46.930;9.532;2023-03-31T09:33:21;22.80;43.80
56268;DHT22;42175;46.930;9.532;2023-03-31T09:35:51;22.90;44.10
56268;DHT22;42175;46.930;9.532;2023-03-31T09:38:17;22.80;43.90
56268;DHT22;42175;46.930;9.532;2023-03-31T09:40:43;22.80;43.90
56268;DHT22;42175;46.930;9.532;2023-03-31T09:45:37;22.80;43.80
56268;DHT22;42175;46.930;9.532;2023-03-31T09:48:13;22.80;44.00
56268;DHT22;42175;46.930;9.532;2023-03-31T09:50:46;22.80;43.90
56268;DHT22;42175;46.930;9.532;2023-03-31T09:56:06;22.90;44.00
56268;DHT22;42175;46.930;9.532;2023-03-31T09:58:44;22.90;44.20
56268;DHT22;42175;46.930;9.532;2023-03-31T10:01:12;22.90;44.30
56268;DHT22;42175;46.930;9.532;2023-03-31T10:03:50;22.90;44.40
56268;DHT22;42175;46.930;9.532;2023-03-31T10:06:16;22.90;44.50
56268;DHT22;42175;46.930;9.532;2023-03-31T10:08:55;22.90;44.40
56268;DHT22;42175;46.930;9.532;2023-03-31T10:11:22;22.90;44.60
56268;DHT22;42175;46.930;9.532;2023-03-31T10:13:50;22.90;44.80
56268;DHT22;42175;46.930;9.532;2023-03-31T10:19:22;22.90;44.90
56268;DHT22;42175;46.930;9.532;2023-03-31T10:22:15;22.90;44.80
56268;DHT22;42175;46.930;9.532;2023-03-31T10:24:43;22.90;44.80
56268;DHT22;42175;46.930;9.532;2023-03-31T10:29:58;22.90;45.00
56268;DHT22;42175;46.930;9.532;2023-03-31T10:32:27;23.00;45.40
56268;DHT22;42175;46.930;9.532;2023-03-31T10:35:05;23.00;45.30
56268;DHT22;42175;46.930;9.532;2023-03-31T10:37:35;23.00;45.30
56268;DHT22;42175;46.930;9.532;2023-03-31T10:40:04;23.00;45.10
56268;DHT22;42175;46.930;9.532;2023-03-31T10:42:37;23.10;45.20
56268;DHT22;42175;46.930;9.532;2023-03-31T10:47:38;23.10;45.40
56268;DHT22;42175;46.930;9.532;2023-03-31T10:50:12;23.00;45.60
56268;DHT22;42175;46.930;9.532;2023-03-31T10:52:46;23.10;45.90
56268;DHT22;42175;46.930;9.532;2023-03-31T10:55:19;23.00;45.70
56268;DHT22;42175;46.930;9.532;2023-03-31T10:57:59;23.10;45.70
56268;DHT22;42175;46.930;9.532;2023-03-31T11:03:35;23.10;46.10
56268;DHT22;42175;46.930;9.532;2023-03-31T11:16:38;23.10;46.20
56268;DHT22;42175;46.930;9.532;2023-03-31T11:41:07;23.10;46.40
56268;DHT22;42175;46.930;9.532;2023-03-31T11:43:35;23.20;46.30
56268;DHT22;42175;46.930;9.532;2023-03-31T11:46:03;23.20;46.30
56268;DHT22;42175;46.930;9.532;2023-03-31T11:51:06;23.20;46.30
56268;DHT22;42175;46.930;9.532;2023-03-31T11:53:37;23.20;46.20
56268;DHT22;42175;46.930;9.532;2023-03-31T11:56:07;23.20;45.90
56268;DHT22;42175;46.930;9.532;2023-03-31T11:58:51;23.10;45.50
56268;DHT22;42175;46.930;9.532;2023-03-31T12:04:30;23.10;45.50
56268;DHT22;42175;46.930;9.532;2023-03-31T12:07:11;23.10;45.50
56268;DHT22;42175;46.930;9.532;2023-03-31T12:10:04;23.10;45.50
56268;DHT22;42175;46.930;9.532;2023-03-31T12:12:38;23.20;45.60
56268;DHT22;42175;46.930;9.532;2023-03-31T12:15:16;23.20;45.50
56268;DHT22;42175;46.930;9.532;2023-03-31T12:17:49;23.10;45.30
56268;DHT22;42175;46.930;9.532;2023-03-31T12:20:31;23.20;45.70
56268;DHT22;42175;46.930;9.532;2023-03-31T12:22:59;23.20;45.50
56268;DHT22;42175;46.930;9.532;2023-03-31T12:25:38;23.10;45.50
56268;DHT22;42175;46.930;9.532;2023-03-31T12:28:05;23.10;45.50
56268;DHT22;42175;46.930;9.532;2023-03-31T12:30:36;23.10;45.40
56268;DHT22;42175;46.930;9.532;2023-03-31T12:35:55;23.10;45.90
56268;DHT22;42175;46.930;9.532;2023-03-31T12:41:15;23.10;45.20
56268;DHT22;42175;46.930;9.532;2023-03-31T12:47:16;23.10;45.20
56268;DHT22;42175;46.930;9.532;2023-03-31T12:55:48;23.10;45.00
56268;DHT22;42175;46.930;9.532;2023-03-31T13:06:04;23.20;44.90
56268;DHT22;42175;46.930;9.532;2023-03-31T13:11:14;23.20;44.80
56268;DHT22;42175;46.930;9.532;2023-03-31T13:13:58;23.20;45.10
56268;DHT22;42175;46.930;9.532;2023-03-31T13:16:24;23.20;45.00
56268;DHT22;42175;46.930;9.532;2023-03-31T13:18:53;23.20;44.90
56268;DHT22;42175;46.930;9.532;2023-03-31T13:21:20;23.20;44.90
56268;DHT22;42175;46.930;9.532;2023-03-31T13:23:47;23.10;44.90
56268;DHT22;42175;46.930;9.532;2023-03-31T13:34:31;23.20;44.90
56268;DHT22;42175;46.930;9.532;2023-03-31T13:40:24;23.20;45.00
56268;DHT22;42175;46.930;9.532;2023-03-31T13:43:14;23.20;45.00
56268;DHT22;42175;46.930;9.532;2023-03-31T14:05:24;23.20;45.00
56268;DHT22;42175;46.930;9.532;2023-03-31T14:08:09;23.20;45.10
56268;DHT22;42175;46.930;9.532;2023-03-31T14:10:40;23.20;45.20
56268;DHT22;42175;46.930;9.532;2023-03-31T14:13:14;23.20;45.30
56268;DHT22;42175;46.930;9.532;2023-03-31T14:15:51;23.20;46.10
56268;DHT22;42175;46.930;9.532;2023-03-31T14:18:29;23.20;46.40
56268;DHT22;42175;46.930;9.532;2023-03-31T14:21:30;23.30;47.10
56268;DHT22;42175;46.930;9.532;2023-03-31T14:27:04;22.60;44.40
56268;DHT22;42175;46.930;9.532;2023-03-31T14:38:32;21.50;45.90
56268;DHT22;42175;46.930;9.532;2023-03-31T14:40:58;21.50;46.40
56268;DHT22;42175;46.930;9.532;2023-03-31T14:43:31;21.40;45.90
56268;DHT22;42175;46.930;9.532;2023-03-31T14:46:07;21.40;43.40
56268;DHT22;42175;46.930;9.532;2023-03-31T14:48:44;21.30;44.00
56268;DHT22;42175;46.930;9.532;2023-03-31T14:51:14;21.40;44.80
56268;DHT22;42175;46.930;9.532;2023-03-31T14:53:41;21.70;44.90
56268;DHT22;42175;46.930;9.532;2023-03-31T14:56:13;21.80;44.90
56268;DHT22;42175;46.930;9.532;2023-03-31T14:58:45;22.00;45.20
56268;DHT22;42175;46.930;9.532;2023-03-31T15:01:16;22.10;45.50
56268;DHT22;42175;46.930;9.532;2023-03-31T15:03:43;22.10;45.50
56268;DHT22;42175;46.930;9.532;2023-03-31T15:06:10;22.20;45.50
56268;DHT22;42175;46.930;9.532;2023-03-31T15:08:36;22.20;45.40
56268;DHT22;42175;46.930;9.532;2023-03-31T15:11:06;22.30;45.50
56268;DHT22;42175;46.930;9.532;2023-03-31T15:13:41;22.30;46.30
56268;DHT22;42175;46.930;9.532;2023-03-31T15:16:34;22.40;45.40
56268;DHT22;42175;46.930;9.532;2023-03-31T15:19:21;22.50;45.60
56268;DHT22;42175;46.930;9.532;2023-03-31T15:22:01;22.50;45.70
56268;DHT22;42175;46.930;9.532;2023-03-31T15:24:30;22.50;45.10
56268;DHT22;42175;46.930;9.532;2023-03-31T15:27:07;22.50;45.50
56268;DHT22;42175;46.930;9.532;2023-03-31T15:29:46;22.20;43.90
56268;DHT22;42175;46.930;9.532;2023-03-31T15:32:26;22.30;45.20
56268;DHT22;42175;46.930;9.532;2023-03-31T15:34:52;22.40;45.70
56268;DHT22;42175;46.930;9.532;2023-03-31T15:37:28;22.40;45.50
56268;DHT22;42175;46.930;9.532;2023-03-31T15:39:58;22.50;46.10
56268;DHT22;42175;46.930;9.532;2023-03-31T15:42:26;22.50;45.80
56268;DHT22;42175;46.930;9.532;2023-03-31T15:47:34;22.70;47.20
56268;DHT22;42175;46.930;9.532;2023-03-31T15:52:37;22.70;47.60
56268;DHT22;42175;46.930;9.532;2023-03-31T15:57:47;22.70;47.90
56268;DHT22;42175;46.930;9.532;2023-03-31T16:00:41;22.70;47.90
56268;DHT22;42175;46.930;9.532;2023-03-31T16:03:26;22.80;48.10
56268;DHT22;42175;46.930;9.532;2023-03-31T16:05:55;22.80;48.40
56268;DHT22;42175;46.930;9.532;2023-03-31T16:11:05;22.80;48.10
56268;DHT22;42175;46.930;9.532;2023-03-31T16:13:33;22.90;47.90
56268;DHT22;42175;46.930;9.532;2023-03-31T16:15:59;22.90;47.80
56268;DHT22;42175;46.930;9.532;2023-03-31T16:18:32;22.90;47.50
56268;DHT22;42175;46.930;9.532;2023-03-31T16:20:59;22.90;47.40
56268;DHT22;42175;46.930;9.532;2023-03-31T16:23:31;22.90;47.60
56268;DHT22;42175;46.930;9.532;2023-03-31T16:25:58;22.90;47.60
56268;DHT22;42175;46.930;9.532;2023-03-31T16:28:30;22.90;47.40
56268;DHT22;42175;46.930;9.532;2023-03-31T16:30:57;23.00;47.50
56268;DHT22;42175;46.930;9.532;2023-03-31T16:33:29;22.90;47.20
56268;DHT22;42175;46.930;9.532;2023-03-31T16:35:56;23.00;47.30
56268;DHT22;42175;46.930;9.532;2023-03-31T16:38:25;22.90;47.40
56268;DHT22;42175;46.930;9.532;2023-03-31T16:40:52;22.90;47.40
56268;DHT22;42175;46.930;9.532;2023-03-31T16:43:24;22.90;47.40
56268;DHT22;42175;46.930;9.532;2023-03-31T16:45:52;23.00;47.70
56268;DHT22;42175;46.930;9.532;2023-03-31T16:48:19;23.00;47.30
56268;DHT22;42175;46.930;9.532;2023-03-31T16:50:47;23.00;47.30
56268;DHT22;42175;46.930;9.532;2023-03-31T16:53:15;23.00;47.50
56268;DHT22;42175;46.930;9.532;2023-03-31T16:55:41;23.00;47.30
56268;DHT22;42175;46.930;9.532;2023-03-31T16:58:07;23.00;47.10
56268;DHT22;42175;46.930;9.532;2023-03-31T17:00:34;23.00;47.30
56268;DHT22;42175;46.930;9.532;2023-03-31T17:03:03;23.00;46.90
56268;DHT22;42175;46.930;9.532;2023-03-31T17:05:30;23.10;47.00
56268;DHT22;42175;46.930;9.532;2023-03-31T17:07:57;23.10;46.70
56268;DHT22;42175;46.930;9.532;2023-03-31T17:10:23;23.10;47.20
56268;DHT22;42175;46.930;9.532;2023-03-31T17:12:51;23.10;46.90
56268;DHT22;42175;46.930;9.532;2023-03-31T17:15:16;23.10;46.90
56268;DHT22;42175;46.930;9.532;2023-03-31T17:17:42;23.10;46.70
56268;DHT22;42175;46.930;9.532;2023-03-31T17:20:09;23.10;47.30
56268;DHT22;42175;46.930;9.532;2023-03-31T17:22:35;23.10;47.20
56268;DHT22;42175;46.930;9.532;2023-03-31T17:25:01;23.10;46.80
56268;DHT22;42175;46.930;9.532;2023-03-31T17:27:28;23.10;47.20
56268;DHT22;42175;46.930;9.532;2023-03-31T17:29:54;23.10;46.60
56268;DHT22;42175;46.930;9.532;2023-03-31T17:32:21;23.10;46.60
56268;DHT22;42175;46.930;9.532;2023-03-31T17:34:48;23.10;46.40
56268;DHT22;42175;46.930;9.532;2023-03-31T17:37:15;23.10;46.70
56268;DHT22;42175;46.930;9.532;2023-03-31T17:39:42;23.10;46.60
56268;DHT22;42175;46.930;9.532;2023-03-31T17:42:11;23.10;46.80
56268;DHT22;42175;46.930;9.532;2023-03-31T17:44:43;23.10;46.50
56268;DHT22;42175;46.930;9.532;2023-03-31T17:47:11;23.10;46.50
56268;DHT22;42175;46.930;9.532;2023-03-31T17:49:37;23.10;46.90
56268;DHT22;42175;46.930;9.532;2023-03-31T17:52:03;23.20;47.10
56268;DHT22;42175;46.930;9.532;2023-03-31T17:54:29;23.20;46.90
56268;DHT22;42175;46.930;9.532;2023-03-31T17:56:54;23.20;47.20
56268;DHT22;42175;46.930;9.532;2023-03-31T17:59:20;23.20;46.80
56268;DHT22;42175;46.930;9.532;2023-03-31T18:01:46;23.10;46.70
56268;DHT22;42175;46.930;9.532;2023-03-31T18:04:13;23.10;46.60
56268;DHT22;42175;46.930;9.532;2023-03-31T18:06:39;23.20;46.60
56268;DHT22;42175;46.930;9.532;2023-03-31T18:09:06;23.20;46.90
56268;DHT22;42175;46.930;9.532;2023-03-31T18:11:34;23.20;47.00
56268;DHT22;42175;46.930;9.532;2023-03-31T18:13:59;23.20;47.40
56268;DHT22;42175;46.930;9.532;2023-03-31T18:16:28;23.20;47.10
56268;DHT22;42175;46.930;9.532;2023-03-31T18:18:54;23.20;47.10
56268;DHT22;42175;46.930;9.532;2023-03-31T18:21:20;23.20;47.00
56268;DHT22;42175;46.930;9.532;2023-03-31T18:23:45;23.30;47.30
56268;DHT22;42175;46.930;9.532;2023-03-31T18:26:18;23.30;47.30
56268;DHT22;42175;46.930;9.532;2023-03-31T18:28:44;23.30;47.30
56268;DHT22;42175;46.930;9.532;2023-03-31T18:31:11;23.30;47.40
56268;DHT22;42175;46.930;9.532;2023-03-31T18:33:38;23.20;47.00
56268;DHT22;42175;46.930;9.532;2023-03-31T18:36:05;23.20;48.10
56268;DHT22;42175;46.930;9.532;2023-03-31T18:38:32;23.20;48.60
56268;DHT22;42175;46.930;9.532;2023-03-31T18:40:58;23.30;48.40
56268;DHT22;42175;46.930;9.532;2023-03-31T18:43:25;23.30;48.00
56268;DHT22;42175;46.930;9.532;2023-03-31T18:45:52;23.30;47.80
56268;DHT22;42175;46.930;9.532;2023-03-31T18:48:19;23.30;47.60
56268;DHT22;42175;46.930;9.532;2023-03-31T18:50:49;23.30;47.50
56268;DHT22;42175;46.930;9.532;2023-03-31T18:53:19;23.30;47.40
56268;DHT22;42175;46.930;9.532;2023-03-31T18:55:52;23.30;47.30
56268;DHT22;42175;46.930;9.532;2023-03-31T18:58:19;23.30;47.40
56268;DHT22;42175;46.930;9.532;2023-03-31T19:00:45;23.30;47.40
56268;DHT22;42175;46.930;9.532;2023-03-31T19:03:11;23.30;47.30
56268;DHT22;42175;46.930;9.532;2023-03-31T19:05:38;23.30;47.20
56268;DHT22;42175;46.930;9.532;2023-03-31T19:08:03;23.30;47.20